Date,TemperatureHighF,TemperatureAvgF,TemperatureLowF,DewpointHighF,DewpointAvgF,DewpointLowF,HumidityHigh,HumidityAvg,HumidityLow,PressureMaxIn,PressureMinIn,WindSpeedMaxMPH,WindSpeedAvgMPH,GustSpeedMaxMPH,PrecipitationSumIn
2013-1-1,71.0,38.5,32.0,25.0,20.9,19.0,66,50,18,30.30,30.17,5,1,10,0.02
2013-1-2,51.0,37.9,28.0,22.0,20.7,19.0,73,52,31,30.22,30.09,8,3,13,0.02
2013-1-3,48.0,37.6,30.0,29.0,22.3,16.0,80,55,38,30.30,30.12,10,3,17,0.00
2013-1-4,48.0,33.3,27.0,27.0,25.0,23.0,86,73,42,30.38,30.28,5,1,9,0.02
2013-1-5,55.0,39.0,28.0,29.0,21.3,11.0,88,55,18,30.42,30.32,7,2,10,0.02
2013-1-6,56.0,41.7,32.0,25.0,18.6,15.0,58,41,21,30.34,30.06,10,4,16,0.00
2013-1-7,54.0,41.5,33.0,26.0,23.3,17.0,66,50,24,30.06,29.89,15,4,22,0.00
2013-1-8,53.0,43.4,33.0,27.0,23.7,20.0,67,47,29,30.20,29.98,11,5,16,0.00
2013-1-9,60.0,47.4,35.0,22.0,17.8,13.0,55,33,17,30.36,30.19,8,2,13,0.00
2013-1-10,61.0,48.9,35.0,24.0,19.0,13.0,51,32,18,30.19,29.93,14,4,26,0.00
2013-1-11,52.0,35.4,27.0,32.0,18.6,9.0,93,52,28,30.13,29.96,23,8,32,0.00
2013-1-12,37.0,27.9,19.0,12.0,8.1,5.0,65,44,27,30.14,30.01,14,2,23,0.00
2013-1-13,39.0,27.4,17.0,10.0,6.1,-2.0,62,42,20,30.15,30.01,10,2,15,0.00
2013-1-14,35.0,27.4,21.0,8.0,3.8,1.0,50,37,25,30.21,30.06,13,5,18,0.00
2013-1-15,37.0,25.9,15.0,3.0,-0.3,-3.0,53,33,19,30.39,30.21,8,2,14,0.00
2013-1-16,51.0,36.2,23.0,6.0,1.6,-2.0,33,24,15,30.44,30.31,10,3,14,0.00
2013-1-17,58.0,43.0,31.0,15.0,10.0,5.0,36,27,17,30.42,30.30,10,4,14,0.00
2013-1-18,63.0,47.1,35.0,18.0,15.8,13.0,48,30,14,30.39,30.25,9,4,14,0.00
2013-1-19,67.0,52.6,40.0,29.0,17.9,14.0,39,26,15,30.38,30.26,7,2,10,0.00
2013-1-20,68.0,53.8,43.0,31.0,23.5,17.0,44,31,23,30.32,30.17,7,2,10,0.00
2013-1-21,69.0,55.8,45.0,30.0,26.1,23.0,43,33,22,30.28,30.17,5,2,9,0.00
2013-1-22,70.0,57.2,45.0,35.0,26.7,22.0,64,33,19,30.36,30.26,7,2,11,0.00
2013-1-23,72.0,58.5,46.0,30.0,26.3,23.0,40,30,20,30.41,30.29,7,3,11,0.00
2013-1-24,64.0,55.2,51.0,44.0,36.4,28.0,69,50,34,30.38,30.32,6,0,9,0.00
2013-1-25,68.0,58.3,48.0,48.0,41.4,40.0,76,55,38,30.37,30.18,8,2,14,0.00
2013-1-26,64.0,56.2,51.0,54.0,47.8,43.0,95,74,56,30.18,30.07,15,6,28,0.07
2013-1-27,60.0,52.0,46.0,49.0,45.0,40.0,96,78,53,30.17,30.07,8,1,12,0.10
2013-1-28,54.0,45.7,34.0,42.0,37.4,31.0,93,74,45,30.08,30.01,19,8,30,0.05
2013-1-29,42.0,35.2,30.0,31.0,23.9,16.0,96,67,35,30.25,30.05,25,11,37,0.07
2013-1-30,50.0,38.9,30.0,23.0,18.6,10.0,71,47,21,30.41,30.25,7,2,12,0.01
2013-1-31,56.0,47.4,35.0,25.0,22.6,18.0,52,38,28,30.33,30.24,7,3,10,0.00
2013-2-1,65.0,48.9,36.0,26.0,23.0,18.0,59,39,16,30.35,30.26,8,4,13,0.00
2013-2-2,68.0,54.0,42.0,24.0,21.4,17.0,45,30,14,30.41,30.28,6,3,9,0.00
2013-2-3,63.0,54.7,49.0,35.0,26.0,21.0,50,34,21,30.31,30.11,12,4,16,0.00
2013-2-4,64.0,53.5,44.0,37.0,33.9,30.0,66,48,34,30.19,30.08,8,3,13,0.00
2013-2-5,66.0,53.7,42.0,39.0,36.5,32.0,80,55,28,30.18,30.05,12,3,20,0.00
2013-2-6,63.0,50.9,41.0,39.0,35.0,31.0,82,57,32,30.17,30.05,14,3,20,0.00
2013-2-7,62.0,50.5,40.0,37.0,31.2,26.0,77,51,26,30.25,30.11,6,3,12,0.00
2013-2-8,65.0,53.5,40.0,30.0,19.3,8.0,58,29,11,30.11,29.91,14,6,24,0.00
2013-2-9,43.0,37.8,31.0,31.0,25.5,21.0,95,62,43,30.11,29.88,19,10,28,0.00
2013-2-10,49.0,37.5,26.0,25.0,20.6,16.0,82,54,27,30.11,30.00,10,3,21,0.00
2013-2-11,47.0,35.6,30.0,33.0,23.0,14.0,96,63,37,30.19,30.03,19,6,27,0.02
2013-2-12,44.0,33.9,24.0,30.0,26.8,23.0,97,77,50,30.32,30.19,7,2,11,0.03
2013-2-13,55.0,40.0,25.0,25.0,20.4,12.0,83,50,19,30.27,30.16,7,2,10,0.03
2013-2-14,58.0,44.3,30.0,26.0,22.2,17.0,70,44,21,30.24,30.14,11,2,17,0.00
2013-2-15,62.0,49.2,39.0,26.0,17.3,0.0,58,32,8,30.39,30.24,14,4,18,0.00
2013-2-16,66.0,53.3,40.0,17.0,11.7,7.0,32,20,10,30.42,30.19,9,3,16,0.00
2013-2-17,66.0,51.3,36.0,17.0,10.9,2.0,36,21,8,30.19,29.97,20,6,31,0.00
2013-2-18,63.0,50.6,39.0,16.0,13.7,11.0,35,23,14,30.20,30.07,8,2,16,0.00
2013-2-19,65.0,52.4,41.0,35.0,20.1,11.0,57,29,17,30.08,29.84,16,4,28,0.00
2013-2-20,49.0,37.3,28.0,32.0,26.7,13.0,97,70,23,29.99,29.74,22,6,38,0.00
2013-2-21,44.0,34.9,23.0,34.0,28.6,22.0,97,80,49,30.11,29.98,7,2,11,0.08
2013-2-22,47.0,39.2,31.0,34.0,30.6,26.0,93,72,48,30.24,30.06,11,4,21,0.08
2013-2-23,59.0,43.3,30.0,30.0,25.1,18.0,82,53,21,30.23,29.95,14,3,19,0.00
2013-2-24,44.0,39.6,33.0,27.0,15.9,3.0,60,39,21,30.15,29.88,27,11,41,0.00
2013-2-25,51.0,39.6,28.0,17.0,13.5,8.0,55,35,21,30.26,30.13,11,4,16,0.00
2013-2-26,55.0,42.3,27.0,21.0,15.1,9.0,65,36,16,30.19,30.04,17,6,26,0.00
2013-2-27,56.0,43.9,31.0,16.0,8.7,3.0,50,25,12,30.30,30.19,9,3,12,0.00
2013-2-28,59.0,45.8,33.0,13.0,6.2,-5.0,35,22,7,30.42,30.28,11,3,22,0.00
2013-3-1,67.0,52.1,34.0,17.0,11.8,7.0,36,21,11,30.45,30.34,7,2,10,0.00
2013-3-2,76.0,60.3,44.0,25.0,18.9,12.0,43,22,9,30.47,30.29,9,4,14,0.00
2013-3-3,72.0,58.8,43.0,25.0,18.9,7.0,42,24,8,30.30,30.10,15,4,21,0.00
2013-3-4,66.0,58.7,46.0,29.0,21.7,12.0,48,25,14,30.23,30.04,21,9,31,0.00
2013-3-5,71.0,57.4,42.0,29.0,25.7,22.0,55,33,16,30.28,30.15,14,5,21,0.00
2013-3-6,75.0,62.1,51.0,29.0,26.3,20.0,39,27,16,30.21,30.06,12,4,20,0.00
2013-3-7,72.0,60.5,47.0,29.0,22.9,13.0,44,26,11,30.13,30.05,13,5,25,0.00
2013-3-8,63.0,54.3,42.0,41.0,34.1,23.0,85,48,28,30.08,29.91,23,10,33,0.01
2013-3-9,45.0,40.3,35.0,37.0,31.5,26.0,87,71,54,30.18,30.04,15,7,24,0.01
2013-3-10,57.0,46.2,38.0,35.0,30.0,23.0,86,57,28,30.27,30.16,9,4,18,0.00
2013-3-11,67.0,52.7,39.0,30.0,24.4,15.0,61,37,14,30.30,30.15,12,4,18,0.00
2013-3-12,74.0,58.7,41.0,32.0,23.6,15.0,62,31,11,30.27,30.17,8,2,12,0.00
2013-3-13,79.0,65.0,48.0,27.0,19.3,14.0,34,19,9,30.35,30.23,8,3,15,0.00
2013-3-14,83.0,67.5,52.0,22.0,14.4,7.0,27,15,6,30.36,30.22,7,3,10,0.00
2013-3-15,85.0,69.7,52.0,24.0,13.6,-5.0,22,13,3,30.27,30.11,15,5,27,0.00
2013-3-16,80.0,71.7,60.0,21.0,11.9,2.0,18,10,5,30.11,29.95,20,8,28,0.00
2013-3-17,75.0,63.5,49.0,23.0,17.5,10.0,25,17,12,30.11,29.98,20,7,34,0.00
2013-3-18,73.0,61.8,48.0,31.0,22.7,13.0,46,24,10,30.18,30.08,12,4,21,0.00
2013-3-19,71.0,59.8,50.0,31.0,25.4,21.0,42,27,18,30.24,30.11,15,4,24,0.00
2013-3-20,75.0,62.1,47.0,28.0,25.8,23.0,43,26,15,30.24,30.06,13,5,21,0.00
2013-3-21,72.0,62.9,53.0,31.0,27.5,18.0,37,27,14,30.06,29.92,17,6,27,0.00
2013-3-22,73.0,64.1,56.0,30.0,24.5,15.0,36,23,12,29.99,29.85,21,8,32,0.00
2013-3-23,66.0,57.9,49.0,30.0,19.6,7.0,41,24,12,30.14,29.98,18,9,30,0.00
2013-3-24,67.0,56.0,42.0,10.0,4.5,-1.0,22,13,7,30.16,30.01,15,5,23,0.00
2013-3-25,72.0,58.8,42.0,15.0,10.1,4.0,24,15,10,30.18,30.07,8,3,13,0.00
2013-3-26,79.0,61.3,47.0,16.0,13.3,7.0,27,17,7,30.18,30.03,10,5,17,0.00
2013-3-27,79.0,65.6,51.0,25.0,18.5,13.0,26,17,9,30.19,30.09,12,5,22,0.00
2013-3-28,76.0,65.8,52.0,32.0,24.3,16.0,42,22,11,30.25,30.15,14,5,26,0.00
2013-3-29,77.0,66.4,53.0,28.0,22.7,12.0,36,20,12,30.29,30.18,12,4,20,0.00
2013-3-30,76.0,65.6,53.0,27.0,17.5,-99.9,28,17,10,30.26,30.12,13,4,19,0.00
2013-3-31,76.0,64.5,51.0,28.0,24.2,20.0,37,23,14,30.23,30.10,13,4,22,0.00
2013-4-1,75.0,64.7,52.0,33.0,28.4,20.0,42,26,17,30.19,30.05,15,5,27,0.00
2013-4-2,69.0,59.9,49.0,22.0,18.7,9.0,32,21,10,30.25,30.03,18,7,30,0.00
2013-4-3,73.0,62.6,47.0,26.0,22.7,19.0,36,22,15,30.35,30.24,11,5,18,0.00
2013-4-4,83.0,67.1,50.0,28.0,19.8,5.0,40,19,5,30.40,30.24,11,4,18,0.00
2013-4-5,81.0,69.4,57.0,29.0,21.9,17.0,27,17,11,30.30,30.16,14,6,28,0.00
2013-4-6,77.0,69.3,58.0,33.0,28.5,23.0,38,23,14,30.29,30.14,15,6,26,0.00
2013-4-7,78.0,66.4,53.0,34.0,28.1,20.0,45,26,12,30.21,30.07,17,5,24,0.00
2013-4-8,76.0,65.6,55.0,36.0,31.3,24.0,46,29,16,30.07,29.67,29,11,45,0.03
2013-4-9,57.0,49.2,41.0,40.0,28.9,20.0,93,50,24,30.14,29.84,20,10,40,0.05
2013-4-10,60.0,51.0,40.0,28.0,23.7,20.0,51,35,24,30.26,30.14,13,6,31,0.00
2013-4-11,72.0,57.2,39.0,28.0,23.8,18.0,57,31,13,30.26,30.06,14,4,23,0.00
2013-4-12,73.0,65.7,51.0,24.0,21.3,18.0,31,19,13,30.14,30.03,12,4,21,0.00
2013-4-13,76.0,64.8,49.0,29.0,22.2,18.0,35,21,12,30.16,30.04,13,6,25,0.00
2013-4-14,78.0,65.6,52.0,33.0,28.4,23.0,43,26,14,30.12,30.00,15,5,32,0.00
2013-4-15,80.0,67.1,52.0,36.0,28.8,22.0,40,26,12,30.10,30.03,15,6,25,0.00
2013-4-16,79.0,67.5,59.0,40.0,28.2,14.0,46,25,9,30.13,30.03,18,8,27,0.00
2013-4-17,61.0,54.8,47.0,43.0,26.1,9.0,61,36,17,30.27,30.05,22,10,37,0.00
2013-4-18,63.0,52.0,39.0,15.0,8.9,-2.0,28,18,7,30.40,30.24,10,4,17,0.00
2013-4-19,72.0,60.8,44.0,7.0,-0.7,-8.0,19,9,4,30.44,30.24,11,4,15,0.00
2013-4-20,76.0,64.3,47.0,16.0,6.9,0.0,17,11,6,30.29,30.19,15,5,22,0.00
2013-4-21,81.0,67.9,51.0,16.0,11.8,3.0,22,12,5,30.36,30.25,13,4,23,0.00
2013-4-22,84.0,71.8,57.0,18.0,12.0,4.0,19,11,5,30.30,30.13,16,6,23,0.00
2013-4-23,81.0,69.7,55.0,23.0,14.9,10.0,20,13,7,30.22,30.12,20,6,28,0.00
2013-4-24,84.0,71.1,56.0,24.0,17.8,10.0,25,14,7,30.27,30.15,12,5,24,0.00
2013-4-25,79.0,69.0,55.0,28.0,20.4,12.0,28,17,8,30.34,30.17,19,7,35,0.00
2013-4-26,79.0,65.3,48.0,29.0,16.1,-4.0,42,19,4,30.42,30.31,12,4,19,0.00
2013-4-27,82.0,70.0,53.0,26.0,17.8,6.0,31,16,6,30.39,30.22,10,3,18,0.00
2013-4-28,86.0,73.4,58.0,22.0,13.7,2.0,22,12,4,30.27,30.10,7,3,17,0.00
2013-4-29,88.0,74.8,60.0,17.0,9.4,2.0,15,9,4,30.19,30.03,11,4,23,0.00
2013-4-30,89.0,75.8,62.0,23.0,16.2,10.0,18,11,6,30.16,30.06,15,7,24,0.00
2013-5-1,82.0,71.4,57.0,23.0,17.5,9.0,25,14,7,30.32,30.14,14,6,26,0.00
2013-5-2,80.0,69.5,58.0,23.0,17.7,5.0,23,14,8,30.45,30.32,14,6,20,0.00
2013-5-3,78.0,63.3,47.0,22.0,16.2,10.0,34,18,8,30.44,30.16,14,6,22,0.00
2013-5-4,85.0,71.5,55.0,30.0,19.1,12.0,22,14,7,30.17,30.05,13,5,23,0.00
2013-5-5,83.0,71.9,63.0,35.0,26.4,17.0,33,19,9,30.25,30.12,15,7,30,0.00
2013-5-6,78.0,66.7,55.0,42.0,36.2,30.0,53,34,19,30.28,30.19,13,5,22,0.00
2013-5-7,77.0,65.4,52.0,39.0,31.1,21.0,47,30,13,30.29,30.16,13,4,27,0.00
2013-5-8,74.0,62.5,49.0,39.0,32.8,24.0,58,36,16,30.32,30.21,15,5,24,0.00
2013-5-9,75.0,65.7,54.0,40.0,31.8,24.0,53,31,15,30.29,30.19,12,5,21,0.00
2013-5-10,76.0,64.4,56.0,37.0,30.6,-99.9,44,30,17,30.39,30.26,17,4,27,0.00
2013-5-11,76.0,65.9,54.0,37.0,33.3,-99.9,48,32,19,30.44,30.35,19,5,23,0.00
2013-5-12,80.0,69.2,56.0,37.0,31.0,24.0,45,27,13,30.49,30.31,19,7,26,0.00
2013-5-13,84.0,72.7,57.0,33.0,24.7,13.0,31,18,7,30.44,30.29,13,4,21,0.00
2013-5-14,88.0,74.4,57.0,35.0,30.0,19.0,33,21,11,30.35,30.20,13,4,21,0.00
2013-5-15,87.0,77.3,64.0,34.0,31.3,28.0,29,19,12,30.35,30.21,19,7,28,0.00
2013-5-16,90.0,72.8,62.0,29.0,11.1,-99.9,27,16,7,30.30,30.14,13,4,23,0.00
2013-5-17,88.0,75.1,60.0,32.0,20.5,-99.9,31,16,3,30.25,30.15,16,5,25,0.00
2013-5-18,82.0,72.8,63.0,34.0,25.7,11.0,30,19,7,30.27,30.16,16,7,29,0.00
2013-5-19,82.0,70.8,54.0,38.0,30.3,24.0,42,24,12,30.26,30.12,17,5,26,0.00
2013-5-20,83.0,72.8,61.0,37.0,27.8,19.0,37,20,10,30.24,30.13,17,7,30,0.00
2013-5-21,87.0,73.8,57.0,23.0,15.9,7.0,23,12,5,30.27,30.13,14,4,20,0.00
2013-5-22,92.0,79.3,60.0,25.0,18.1,11.0,22,11,5,30.19,30.05,13,5,21,0.00
2013-5-23,92.0,78.3,59.0,36.0,20.1,4.0,26,13,4,30.21,30.12,13,5,21,0.00
2013-5-24,91.0,77.1,59.0,42.0,22.6,4.0,40,18,4,30.29,30.18,13,5,25,0.00
2013-5-25,90.0,77.8,61.0,32.0,19.8,4.0,30,13,4,30.31,30.21,16,6,24,0.00
2013-5-26,90.0,75.6,57.0,26.0,14.4,-1.0,24,11,3,30.31,30.21,15,4,27,0.00
2013-5-27,88.0,75.9,61.0,26.0,12.8,-6.0,19,10,3,30.27,30.08,15,6,24,0.00
2013-5-28,88.0,75.2,59.0,30.0,19.6,5.0,25,14,5,30.14,29.97,15,5,27,0.00
2013-5-29,85.0,73.9,57.0,34.0,29.2,21.0,31,20,10,30.11,30.03,15,5,23,0.00
2013-5-30,88.0,81.1,70.0,51.0,36.7,29.0,51,22,13,30.21,30.12,15,6,28,0.00
2013-5-31,90.0,78.6,64.0,54.0,43.1,31.0,67,32,13,30.26,30.14,13,6,22,0.00
2013-6-1,96.0,83.8,66.0,39.0,31.3,22.0,31,17,7,30.23,30.09,9,4,15,0.00
2013-6-2,100.0,86.2,72.0,41.0,33.1,17.0,30,16,5,30.20,30.07,14,6,26,0.00
2013-6-3,96.0,82.8,68.0,38.0,27.1,9.0,30,15,4,30.24,30.13,14,5,25,0.00
2013-6-4,95.0,82.3,66.0,40.0,33.2,25.0,33,18,9,30.26,30.16,14,7,25,0.00
2013-6-5,91.0,81.2,65.0,35.0,24.0,11.0,28,14,5,30.27,30.14,13,6,23,0.00
2013-6-6,97.0,83.3,68.0,27.0,22.9,11.0,19,11,5,30.22,30.10,9,4,17,0.00
2013-6-7,99.0,84.7,72.0,36.0,25.3,18.0,20,12,6,30.20,30.05,10,3,20,0.00
2013-6-8,95.0,86.0,76.0,29.0,23.8,17.0,16,11,6,30.22,30.13,17,10,29,0.00
2013-6-9,95.0,84.6,72.0,39.0,27.2,13.0,28,14,6,30.28,30.18,15,9,28,0.00
2013-6-10,97.0,86.8,71.0,34.0,25.8,9.0,20,12,4,30.29,30.17,15,6,22,0.00
2013-6-11,99.0,87.2,73.0,30.0,23.1,15.0,17,10,5,30.29,30.17,13,6,23,0.00
2013-6-12,99.0,87.5,71.0,33.0,28.2,26.0,21,12,8,30.33,30.18,13,6,24,0.00
2013-6-13,95.0,85.5,76.0,45.0,40.3,34.0,31,21,14,30.31,30.16,15,9,27,0.00
2013-6-14,94.0,82.6,73.0,54.0,49.1,43.0,49,32,18,30.27,30.14,13,6,31,0.00
2013-6-15,79.0,74.6,72.0,50.0,48.4,47.0,43,40,34,30.21,30.20,4,2,7,0.00
2013-9-14,87.0,78.7,76.0,61.0,50.9,-99.9,59,42,35,30.13,30.06,6,2,12,0.00
2013-10-4,77.0,68.8,58.0,49.0,40.5,29.0,65,37,24,30.31,30.15,11,6,21,0.00
2013-10-5,75.0,62.9,52.0,29.0,18.9,-99.9,26,19,15,30.43,30.31,7,2,12,0.00
2013-10-6,79.0,65.4,50.0,23.0,20.8,16.0,29,19,11,30.46,30.35,8,3,13,0.00
2013-10-7,83.0,69.4,53.0,31.0,26.4,21.0,28,20,14,30.40,30.25,9,4,15,0.00
2013-10-8,82.0,72.7,58.0,38.0,30.5,25.0,34,22,16,30.27,30.14,12,4,19,0.00
2013-10-9,81.0,71.0,58.0,47.0,36.6,29.0,47,30,16,30.16,30.06,17,9,28,0.00
2013-10-10,67.0,60.1,50.0,47.0,41.5,36.0,69,51,33,30.23,30.06,17,7,34,0.00
2013-10-11,70.0,56.6,44.0,41.0,38.3,34.0,82,54,27,30.28,30.19,7,2,10,0.00
2013-10-12,80.0,68.2,49.0,40.0,28.5,-99.9,57,26,14,30.28,30.16,10,4,17,0.00
2013-10-13,82.0,69.3,55.0,45.0,39.6,31.0,56,36,16,30.31,30.21,14,5,29,0.00
2013-10-14,75.0,64.0,57.0,48.0,41.9,33.0,68,46,28,30.34,30.23,11,4,19,0.00
2013-10-15,75.0,64.3,50.0,42.0,34.5,28.0,53,34,23,30.27,30.15,13,4,22,0.00
2013-10-16,71.0,64.9,56.0,28.0,19.3,12.0,30,18,10,30.36,30.27,12,4,17,0.00
2013-10-17,73.0,65.7,56.0,22.0,16.4,9.0,25,15,9,30.35,30.20,10,5,19,0.00
2013-10-18,74.0,64.7,49.0,26.0,23.1,20.0,31,21,14,30.31,30.23,6,3,10,0.00
2013-10-19,77.0,67.2,60.0,20.0,12.8,-99.9,18,13,9,30.37,30.24,7,4,12,0.00
2013-10-20,75.0,67.4,47.0,21.0,15.6,8.0,23,14,8,30.29,30.17,12,4,17,0.00
2013-10-21,76.0,68.3,53.0,20.0,16.3,12.0,25,14,9,30.32,30.24,10,4,18,0.00
2013-10-22,78.0,71.2,59.0,29.0,20.5,12.0,28,16,8,30.40,30.26,10,4,16,0.00
2013-10-23,81.0,71.8,61.0,33.0,30.2,26.0,30,22,16,30.32,30.20,8,3,12,0.00
2013-10-24,83.0,71.1,54.0,37.0,29.4,24.0,35,22,14,30.32,30.20,10,4,19,0.00
2013-10-25,78.0,71.3,63.0,29.0,26.7,23.0,25,19,15,30.39,30.30,10,5,16,0.00
2013-10-26,78.0,68.0,59.0,30.0,21.9,-99.9,30,19,12,30.44,30.33,5,2,9,0.00
2013-10-27,81.0,69.4,54.0,34.0,28.1,22.0,39,23,13,30.35,30.12,10,5,15,0.00
2013-10-28,73.0,65.3,59.0,32.0,25.9,-99.9,32,25,13,30.24,30.14,15,6,30,0.00
2013-10-29,76.0,63.8,53.0,38.0,30.4,22.0,55,30,15,30.26,30.13,16,5,28,0.00
2013-10-30,61.0,54.4,47.0,43.0,36.5,27.0,70,51,39,30.30,30.18,13,6,23,0.00
2013-10-31,67.0,52.5,38.0,31.0,22.1,8.0,61,35,11,30.39,30.27,10,3,16,0.00
2013-11-1,71.0,60.9,40.0,24.0,20.9,17.0,41,22,14,30.44,30.32,5,2,8,0.00
2013-11-2,76.0,62.6,47.0,27.0,15.4,-99.9,31,18,11,30.38,30.20,13,4,22,0.00
2013-11-3,71.0,61.0,53.0,50.0,44.8,39.0,85,57,37,30.24,30.07,12,3,21,0.03
2013-11-4,74.0,61.9,50.0,45.0,41.1,37.0,68,48,26,30.15,30.01,13,4,22,0.00
2013-11-5,62.0,55.3,48.0,45.0,39.4,34.0,73,56,37,30.40,30.12,12,4,18,0.00
2013-11-6,67.0,55.1,45.0,40.0,22.8,14.0,75,32,13,30.53,30.41,8,2,12,0.00
2013-11-18,71.0,60.4,50.0,47.0,40.5,38.0,68,49,30,30.40,30.26,8,2,13,0.00
2013-11-19,71.0,58.4,45.0,41.0,36.0,28.0,74,47,20,30.32,30.14,9,1,17,0.00
2013-11-20,71.0,61.3,51.0,40.0,34.4,22.0,55,39,16,30.19,30.08,15,4,25,0.00
2013-11-21,69.0,59.7,48.0,46.0,40.2,34.0,60,49,36,30.24,30.15,12,3,20,0.00
2013-11-22,64.0,57.2,49.0,52.0,47.2,40.0,93,70,51,30.20,30.11,20,7,30,0.21
2013-11-23,48.0,42.8,40.0,42.0,37.9,-99.9,95,88,73,30.32,30.19,10,5,16,0.19
2013-11-24,47.0,41.2,38.0,38.0,36.5,34.0,92,84,70,30.37,30.30,7,2,11,0.10
2013-11-25,53.0,45.4,39.0,37.0,34.5,32.0,79,66,50,30.46,30.35,6,2,11,0.00
2013-11-26,57.0,45.8,36.0,33.0,29.1,21.0,82,55,31,30.55,30.42,10,5,16,0.00
2013-11-30,67.0,55.4,45.0,40.0,34.8,-99.9,74,49,29,30.45,30.35,5,1,9,0.00
2013-12-1,68.0,57.0,50.0,41.0,37.9,28.0,67,50,22,30.47,30.38,8,1,11,0.00
2013-12-2,67.0,53.8,40.0,40.0,30.0,16.0,80,45,14,30.41,30.19,11,2,18,0.00
2013-12-3,70.0,56.4,43.0,43.0,29.0,14.0,57,38,13,30.19,30.02,8,2,15,0.00
2013-12-4,63.0,55.4,47.0,44.0,37.2,22.0,75,53,21,30.13,30.02,20,6,32,0.00
2013-12-5,49.0,39.4,34.0,40.0,35.2,28.0,93,85,65,30.26,30.08,10,6,23,0.12
2013-12-6,46.0,36.0,25.0,28.0,24.9,21.0,86,66,42,30.36,30.25,5,1,15,0.01
2013-12-7,54.0,40.7,28.0,29.0,20.3,-99.9,76,49,21,30.27,30.16,10,2,20,0.00
2013-12-8,49.0,43.5,36.0,36.0,31.4,21.0,83,63,50,30.31,30.22,11,4,20,0.00
2013-12-9,46.0,39.0,32.0,36.0,22.7,12.0,87,54,25,30.49,30.26,9,2,15,0.00
2013-12-10,53.0,40.4,30.0,16.0,13.6,10.0,48,34,22,30.48,30.33,6,3,12,0.00
2013-12-11,63.0,50.5,37.0,38.0,25.6,15.0,47,38,33,30.47,30.37,8,3,13,0.00
2013-12-12,63.0,48.7,41.0,47.0,32.1,22.0,86,53,40,30.47,30.30,9,4,15,0.15
2013-12-13,54.0,46.3,37.0,34.0,30.7,28.0,71,55,39,30.39,30.30,10,4,17,0.12
2013-12-14,56.0,44.6,34.0,31.0,23.2,-99.9,78,48,23,30.53,30.38,7,2,15,0.00
2013-12-15,60.0,48.6,38.0,24.0,21.5,19.0,52,35,23,30.55,30.43,6,2,9,0.00
2013-12-16,68.0,53.4,40.0,23.0,21.5,19.0,50,30,16,30.53,30.43,6,3,10,0.00
2013-12-17,72.0,61.1,50.0,25.0,23.1,21.0,34,24,16,30.54,30.40,6,3,10,0.00
2013-12-18,68.0,59.9,48.0,25.0,22.3,20.0,37,24,16,30.37,30.15,8,3,12,0.00
2013-12-19,63.0,53.8,45.0,26.0,22.1,17.0,41,30,17,30.14,29.97,14,3,26,0.00
2013-12-20,48.0,42.1,38.0,39.0,32.4,20.0,93,71,33,30.02,29.87,11,4,17,0.22
2013-12-21,45.0,40.1,38.0,39.0,32.1,-99.9,92,78,59,30.23,30.01,15,9,27,0.08
2013-12-22,49.0,43.0,36.0,37.0,33.2,27.0,94,70,46,30.49,30.23,12,1,17,0.01
2013-12-23,55.0,43.3,33.0,31.0,27.5,23.0,84,56,32,30.59,30.49,7,2,11,0.00
2013-12-24,59.0,45.1,34.0,27.0,24.7,22.0,63,46,29,30.52,30.36,7,2,15,0.00
2013-12-25,58.0,49.6,39.0,27.0,25.5,24.0,60,40,29,30.52,30.40,7,3,12,0.00
2013-12-26,54.0,43.1,32.0,27.0,23.5,21.0,71,47,27,30.52,30.39,9,3,14,0.00
2013-12-27,57.0,45.7,34.0,24.0,20.7,17.0,60,39,21,30.50,30.38,8,3,12,0.00